createdAt,value
2018-04-17T00:01:00.879Z,76.70
2018-04-17T00:03:34.407Z,76.40
2018-04-17T00:06:08.212Z,77.10
2018-04-17T00:08:41.743Z,76.70
2018-04-17T00:11:15.322Z,77.10
2018-04-17T00:13:49.016Z,76.70
2018-04-17T00:16:22.519Z,77.20
2018-04-17T00:18:56.126Z,77.00
2018-04-17T00:21:29.820Z,77.70
2018-04-17T00:24:03.534Z,78.30
2018-04-17T00:26:37.224Z,77.90
2018-04-17T00:29:10.791Z,78.60
2018-04-17T00:31:44.436Z,77.80
2018-04-17T00:34:18.123Z,77.90
2018-04-17T00:36:52.218Z,78.30
2018-04-17T00:39:25.743Z,78.80
2018-04-17T00:41:59.642Z,78.00
2018-04-17T00:44:33.467Z,77.50
2018-04-17T00:47:07.122Z,77.80
2018-04-17T00:49:40.858Z,77.00
2018-04-17T00:52:14.670Z,76.70
2018-04-17T00:54:48.362Z,77.10
2018-04-17T00:57:22.078Z,76.60
2018-04-17T00:59:56.700Z,78.30
2018-04-17T01:02:30.303Z,77.60
2018-04-17T01:05:03.902Z,77.00
2018-04-17T01:07:37.547Z,77.00
2018-04-17T01:10:11.311Z,76.90
2018-04-17T01:12:44.910Z,77.20
2018-04-17T01:15:18.745Z,77.30
2018-04-17T01:17:52.526Z,76.50
2018-04-17T01:20:26.328Z,76.70
2018-04-17T01:22:59.815Z,77.00
2018-04-17T01:25:33.415Z,77.00
2018-04-17T01:28:07.931Z,77.40
2018-04-17T01:30:41.562Z,77.30
2018-04-17T01:33:15.347Z,76.90
2018-04-17T01:35:48.949Z,76.90
2018-04-17T01:38:22.462Z,77.20
2018-04-17T01:40:56.966Z,76.80
2018-04-17T01:43:31.599Z,78.00
2018-04-17T01:46:05.195Z,77.00
2018-04-17T01:48:38.810Z,76.80
2018-04-17T01:51:12.805Z,76.60
2018-04-17T01:53:46.412Z,76.70
2018-04-17T01:56:20.026Z,76.80
2018-04-17T01:58:53.814Z,77.20
2018-04-17T02:01:28.123Z,77.30
2018-04-17T02:04:01.843Z,76.60
2018-04-17T02:06:35.368Z,77.10
2018-04-17T02:09:09.050Z,76.90
2018-04-17T02:11:42.697Z,76.70
2018-04-17T02:14:16.314Z,77.20
2018-04-17T02:16:50.286Z,77.20
2018-04-17T02:19:23.859Z,76.80
2018-04-17T02:21:57.566Z,77.20
2018-04-17T02:24:32.082Z,77.30
2018-04-17T02:27:05.884Z,77.30
2018-04-17T02:29:39.540Z,77.10
2018-04-17T02:32:13.294Z,78.00
2018-04-17T02:34:47.096Z,77.40
2018-04-17T02:37:20.722Z,77.40
2018-04-17T02:39:55.005Z,77.60
2018-04-17T02:42:28.714Z,77.60
2018-04-17T02:45:02.529Z,77.10
2018-04-17T02:47:36.361Z,77.10
2018-04-17T02:50:09.935Z,78.10
2018-04-17T02:52:43.671Z,79.10
2018-04-17T02:55:17.407Z,78.60
2018-04-17T02:57:51.030Z,78.80
2018-04-17T03:00:24.743Z,78.80
2018-04-17T03:02:58.551Z,78.40
2018-04-17T03:05:32.114Z,78.40
2018-04-17T03:08:05.638Z,78.40
2018-04-17T03:10:40.781Z,78.50
2018-04-17T03:13:14.599Z,78.40
2018-04-17T03:15:49.214Z,77.80
2018-04-17T03:18:23.014Z,79.30
2018-04-17T03:20:56.827Z,78.90
2018-04-17T03:23:30.625Z,80.40
2018-04-17T03:26:04.113Z,80.80
2018-04-17T03:28:37.839Z,81.70
2018-04-17T03:31:11.634Z,82.00
2018-04-17T03:33:45.283Z,82.00
2018-04-17T03:36:18.939Z,82.00
2018-04-17T03:38:52.534Z,82.10
2018-04-17T03:41:26.106Z,82.30
2018-04-17T03:43:59.730Z,82.20
2018-04-17T03:46:33.446Z,82.70
2018-04-17T03:49:07.250Z,82.20
2018-04-17T03:51:40.931Z,82.80
2018-04-17T03:54:14.471Z,83.00
2018-04-17T03:56:48.251Z,83.00
2018-04-17T03:59:22.066Z,82.50
2018-04-17T04:01:55.659Z,82.50
2018-04-17T04:04:29.377Z,82.80
2018-04-17T04:07:03.769Z,82.90
2018-04-17T04:09:37.690Z,82.90
2018-04-17T04:12:11.506Z,82.90
2018-04-17T04:14:45.194Z,83.10
2018-04-17T04:17:30.587Z,82.80
2018-04-17T04:20:15.868Z,83.40
2018-04-17T04:26:14.924Z,82.60
2018-04-17T04:28:48.542Z,83.50
2018-04-17T04:31:22.278Z,83.30
2018-04-17T04:33:56.902Z,83.70
2018-04-17T04:36:31.329Z,83.70
2018-04-17T04:39:05.015Z,83.50
2018-04-17T04:41:38.537Z,83.40
2018-04-17T04:44:12.190Z,83.70
2018-04-17T04:46:45.708Z,83.70
2018-04-17T04:49:19.738Z,84.00
2018-04-17T04:51:53.343Z,84.20
2018-04-17T04:54:27.007Z,84.20
2018-04-17T04:57:00.626Z,84.50
2018-04-17T04:59:34.346Z,84.30
2018-04-17T05:02:07.848Z,83.90
2018-04-17T05:04:42.120Z,84.50
2018-04-17T05:07:15.966Z,84.50
2018-04-17T05:09:50.243Z,85.40
2018-04-17T05:12:23.987Z,84.60
2018-04-17T05:14:57.660Z,84.80
2018-04-17T05:17:31.599Z,85.20
2018-04-17T05:20:05.097Z,85.40
2018-04-17T05:22:39.002Z,86.00
2018-04-17T05:25:12.755Z,85.30
2018-04-17T05:27:46.407Z,85.70
2018-04-17T05:30:19.914Z,85.50
2018-04-17T05:32:53.490Z,85.90
2018-04-17T05:35:27.210Z,85.50
2018-04-17T05:38:00.989Z,85.40
2018-04-17T05:40:34.707Z,85.60
2018-04-17T05:43:08.440Z,85.70
2018-04-17T05:45:42.078Z,85.90
2018-04-17T05:48:15.739Z,85.30
2018-04-17T05:50:49.647Z,85.20
2018-04-17T05:53:23.225Z,85.90
2018-04-17T05:55:57.105Z,86.40
2018-04-17T05:58:31.547Z,84.90
2018-04-17T06:01:05.235Z,84.80
2018-04-17T06:03:38.999Z,85.40
2018-04-17T06:06:12.542Z,85.40
2018-04-17T06:08:47.711Z,85.80
2018-04-17T06:11:21.278Z,85.70
2018-04-17T06:13:54.952Z,85.60
2018-04-17T06:16:28.711Z,85.80
2018-04-17T06:19:02.523Z,86.10
2018-04-17T06:21:36.230Z,85.80
2018-04-17T06:24:09.810Z,86.10
2018-04-17T06:26:43.534Z,86.10
2018-04-17T06:29:17.334Z,85.50
2018-04-17T06:31:51.142Z,85.60
2018-04-17T06:34:24.794Z,85.80
2018-04-17T06:36:58.539Z,85.70
2018-04-17T06:39:32.234Z,85.90
2018-04-17T06:42:06.189Z,85.70
2018-04-17T06:44:39.850Z,85.70
2018-04-17T06:47:14.397Z,85.60
2018-04-17T06:49:48.087Z,85.80
2018-04-17T06:52:21.799Z,85.60
2018-04-17T06:54:55.601Z,85.30
2018-04-17T06:57:29.287Z,84.90
2018-04-17T07:00:02.845Z,85.10
2018-04-17T07:02:37.419Z,85.00
2018-04-17T07:05:11.120Z,84.90
2018-04-17T07:07:44.726Z,84.20
2018-04-17T07:10:18.317Z,84.40
2018-04-17T07:12:52.024Z,84.50
2018-04-17T07:15:25.543Z,84.50
2018-04-17T07:17:59.236Z,84.70
2018-04-17T07:20:33.030Z,83.70
2018-04-17T07:23:06.641Z,84.30
2018-04-17T07:25:40.322Z,84.90
2018-04-17T07:28:14.043Z,84.40
2018-04-17T07:30:47.735Z,84.20
2018-04-17T07:33:21.442Z,84.10
2018-04-17T07:35:55.043Z,83.80
2018-04-17T07:38:28.771Z,84.00
2018-04-17T07:41:02.340Z,83.90
2018-04-17T07:43:36.780Z,83.30
2018-04-17T07:46:10.687Z,83.30
2018-04-17T07:48:51.231Z,82.90
2018-04-17T07:51:25.051Z,82.30
2018-04-17T07:53:58.742Z,81.90
2018-04-17T07:56:32.459Z,82.80
2018-04-17T07:59:06.258Z,81.70
2018-04-17T08:01:39.974Z,80.80
2018-04-17T08:04:13.670Z,81.10
2018-04-17T08:06:49.140Z,80.50
2018-04-17T08:09:22.840Z,80.50
2018-04-17T08:11:56.605Z,79.20
2018-04-17T08:14:30.327Z,79.20
2018-04-17T08:17:03.995Z,79.30
2018-04-17T08:19:38.553Z,77.50
2018-04-17T08:22:12.355Z,77.40
2018-04-17T08:24:45.887Z,76.30
2018-04-17T08:27:19.421Z,75.60
2018-04-17T08:29:53.158Z,74.70
2018-04-17T08:32:26.963Z,74.80
2018-04-17T08:35:00.702Z,75.00
2018-04-17T08:37:34.369Z,75.00
2018-04-17T08:40:08.058Z,73.40
2018-04-17T08:42:41.692Z,73.70
2018-04-17T08:45:15.377Z,72.00
2018-04-17T08:47:49.005Z,72.30
2018-04-17T08:50:22.618Z,71.30
2018-04-17T08:52:56.386Z,71.80
2018-04-17T08:55:30.899Z,70.30
2018-04-17T08:58:04.646Z,70.10
2018-04-17T09:00:38.227Z,70.40
2018-04-17T09:03:11.802Z,69.60
2018-04-17T09:05:45.536Z,69.00
2018-04-17T09:08:19.227Z,70.10
2018-04-17T09:10:52.819Z,69.20
2018-04-17T09:13:26.419Z,68.80
2018-04-17T09:16:06.362Z,68.20
2018-04-17T09:18:40.369Z,66.90
2018-04-17T09:21:13.891Z,67.00
2018-04-17T09:23:47.770Z,64.90
2018-04-17T09:26:21.383Z,62.90
2018-04-17T09:28:55.190Z,61.10
2018-04-17T09:31:28.706Z,63.20
2018-04-17T09:34:02.257Z,62.50
2018-04-17T09:36:36.000Z,59.10
2018-04-17T09:39:09.799Z,58.50
2018-04-17T09:41:43.323Z,58.20
2018-04-17T09:44:16.999Z,57.30
2018-04-17T09:46:50.522Z,55.20
2018-04-17T09:49:24.194Z,55.10
2018-04-17T09:51:57.714Z,53.50
2018-04-17T09:54:31.498Z,52.20
2018-04-17T09:57:05.039Z,54.30
2018-04-17T09:59:38.618Z,54.00
2018-04-17T10:02:12.246Z,51.70
2018-04-17T10:04:45.809Z,53.60
2018-04-17T10:07:19.334Z,53.20
2018-04-17T10:09:52.978Z,53.20
2018-04-17T10:12:28.433Z,53.00
2018-04-17T10:15:02.147Z,51.20
2018-04-17T10:17:35.741Z,46.30
2018-04-17T10:20:09.294Z,45.30
2018-04-17T10:22:43.666Z,44.30
2018-04-17T10:25:17.471Z,44.20
2018-04-17T10:27:50.989Z,44.80
2018-04-17T10:30:24.550Z,45.00
2018-04-17T10:32:58.488Z,44.40
2018-04-17T10:35:32.793Z,42.60
2018-04-17T10:38:06.480Z,42.60
2018-04-17T10:40:40.832Z,44.20
2018-04-17T10:43:14.524Z,44.20
2018-04-17T10:45:48.133Z,45.10
2018-04-17T10:48:21.929Z,44.00
2018-04-17T10:50:55.539Z,45.60
2018-04-17T10:53:29.311Z,44.50
2018-04-17T10:56:03.634Z,45.30
2018-04-17T10:58:38.067Z,46.20
2018-04-17T11:01:11.677Z,46.20
2018-04-17T11:03:46.067Z,44.20
2018-04-17T11:06:20.004Z,44.10
2018-04-17T11:08:53.806Z,43.80
2018-04-17T11:11:28.951Z,43.70
2018-04-17T11:14:02.742Z,43.70
2018-04-17T11:16:36.340Z,44.40
2018-04-17T11:19:09.975Z,44.40
2018-04-17T11:21:43.530Z,44.40
2018-04-17T11:24:17.135Z,42.60
2018-04-17T11:26:50.863Z,43.50
2018-04-17T11:29:24.462Z,43.50
2018-04-17T11:31:58.185Z,44.00
2018-04-17T11:34:31.864Z,44.40
2018-04-17T11:37:05.430Z,42.80
2018-04-17T11:39:39.075Z,42.50
2018-04-17T11:42:12.760Z,43.30
2018-04-17T11:44:46.474Z,43.40
2018-04-17T11:47:20.132Z,42.50
2018-04-17T11:49:53.679Z,41.70
2018-04-17T11:52:27.486Z,41.40
2018-04-17T11:55:00.977Z,43.00
2018-04-17T11:57:34.577Z,42.30
2018-04-17T12:00:08.066Z,41.90
2018-04-17T12:02:42.389Z,43.00
2018-04-17T12:05:16.016Z,42.90
2018-04-17T12:07:49.578Z,42.70
2018-04-17T12:10:23.983Z,41.70
2018-04-17T12:12:57.531Z,41.70
2018-04-17T12:15:31.936Z,39.00
2018-04-17T12:18:06.235Z,38.20
2018-04-17T12:20:40.772Z,38.60
2018-04-17T12:23:14.578Z,38.50
2018-04-17T12:25:49.097Z,39.90
2018-04-17T12:28:22.804Z,39.90
2018-04-17T12:30:57.228Z,38.90
2018-04-17T12:33:31.022Z,38.80
2018-04-17T12:36:05.303Z,36.00
2018-04-17T12:38:39.866Z,38.00
2018-04-17T12:41:13.367Z,38.00
2018-04-17T12:43:46.915Z,35.80
2018-04-17T12:46:20.873Z,38.60
2018-04-17T12:48:54.679Z,36.90
2018-04-17T12:51:28.960Z,36.70
2018-04-17T12:54:03.617Z,36.60
2018-04-17T12:56:37.114Z,37.10
2018-04-17T12:59:10.717Z,36.70
2018-04-17T13:01:45.016Z,37.00
2018-04-17T13:04:18.657Z,36.90
2018-04-17T13:06:52.215Z,38.10
2018-04-17T13:09:26.757Z,37.40
2018-04-17T13:12:00.443Z,37.30
2018-04-17T13:14:34.170Z,37.10
2018-04-17T13:17:07.974Z,37.40
2018-04-17T13:19:41.667Z,36.00
2018-04-17T13:22:16.046Z,37.10
2018-04-17T13:24:49.596Z,37.10
2018-04-17T13:27:23.198Z,36.70
2018-04-17T13:29:57.626Z,35.30
2018-04-17T13:32:32.242Z,34.90
2018-04-17T13:35:05.926Z,34.80
2018-04-17T13:37:39.851Z,35.60
2018-04-17T13:40:13.366Z,37.10
2018-04-17T13:42:47.039Z,35.10
2018-04-17T13:45:21.382Z,36.00
2018-04-17T13:47:55.149Z,36.00
2018-04-17T13:50:28.778Z,36.00
2018-04-17T13:53:03.174Z,36.00
2018-04-17T13:55:36.702Z,35.90
2018-04-17T13:58:10.511Z,34.40
2018-04-17T14:00:44.023Z,34.20
2018-04-17T14:03:17.570Z,33.90
2018-04-17T14:05:51.101Z,35.60
2018-04-17T14:08:24.908Z,34.40
2018-04-17T14:10:58.452Z,34.90
2018-04-17T14:13:32.015Z,34.60
2018-04-17T14:16:05.710Z,35.90
2018-04-17T14:18:39.515Z,34.90
2018-04-17T14:21:13.324Z,34.40
2018-04-17T14:23:46.924Z,35.20
2018-04-17T14:26:21.440Z,34.10
2018-04-17T14:28:55.214Z,34.10
2018-04-17T14:31:29.669Z,33.90
2018-04-17T14:34:04.063Z,33.20
2018-04-17T14:36:37.763Z,33.10
2018-04-17T14:39:11.599Z,35.30
2018-04-17T14:41:45.194Z,34.80
2018-04-17T14:44:18.870Z,33.30
2018-04-17T14:46:53.320Z,34.30
2018-04-17T14:52:27.628Z,33.60
2018-04-17T14:55:01.122Z,33.00
2018-04-17T14:57:34.855Z,33.50
2018-04-17T15:00:08.470Z,33.20
2018-04-17T15:02:42.073Z,32.20
2018-04-17T15:05:16.343Z,31.80
2018-04-17T15:07:50.289Z,31.80
2018-04-17T15:10:23.890Z,31.80
2018-04-17T15:12:57.458Z,32.40
2018-04-17T15:15:30.955Z,32.30
2018-04-17T15:18:04.531Z,32.10
2018-04-17T15:20:38.295Z,33.40
2018-04-17T15:23:12.099Z,32.60
2018-04-17T15:25:45.908Z,31.90
2018-04-17T15:28:19.529Z,31.50
2018-04-17T15:30:53.311Z,30.60
2018-04-17T15:33:26.918Z,31.90
2018-04-17T15:36:00.714Z,31.30
2018-04-17T15:38:34.318Z,33.20
2018-04-17T15:41:08.815Z,32.90
2018-04-17T15:43:42.434Z,32.90
2018-04-17T15:46:16.149Z,32.80
2018-04-17T15:48:50.558Z,33.00
2018-04-17T15:51:24.171Z,33.00
2018-04-17T15:53:57.911Z,33.90
2018-04-17T15:56:31.634Z,33.30
2018-04-17T15:59:05.261Z,33.80
2018-04-17T16:01:38.971Z,32.20
2018-04-17T16:04:12.780Z,32.90
2018-04-17T16:06:46.412Z,33.10
2018-04-17T16:09:20.703Z,33.50
2018-04-17T16:11:54.262Z,33.50
2018-04-17T16:14:28.010Z,33.00
2018-04-17T16:17:01.501Z,32.80
2018-04-17T16:19:35.227Z,33.40
2018-04-17T16:22:08.882Z,35.10
2018-04-17T16:24:42.546Z,34.80
2018-04-17T16:27:17.231Z,36.70
2018-04-17T16:29:51.551Z,35.80
2018-04-17T16:32:25.055Z,35.80
2018-04-17T16:34:58.859Z,37.70
2018-04-17T16:37:32.468Z,35.60
2018-04-17T16:40:06.116Z,34.60
2018-04-17T16:42:39.742Z,35.00
2018-04-17T16:45:13.469Z,37.70
2018-04-17T16:47:47.285Z,35.90
2018-04-17T16:50:21.086Z,36.80
2018-04-17T16:52:54.709Z,37.80
2018-04-17T16:55:29.306Z,37.50
2018-04-17T16:58:03.112Z,37.50
2018-04-17T17:00:36.674Z,38.90
2018-04-17T17:03:10.169Z,38.20
2018-04-17T17:05:43.909Z,40.40
2018-04-17T17:08:17.586Z,39.60
2018-04-17T17:10:51.339Z,41.10
2018-04-17T17:13:25.028Z,41.10
2018-04-17T17:15:58.554Z,40.80
2018-04-17T17:18:32.332Z,41.60
2018-04-17T17:21:06.035Z,41.20
2018-04-17T17:23:39.735Z,40.20
2018-04-17T17:26:13.323Z,40.60
2018-04-17T17:28:47.134Z,41.60
2018-04-17T17:31:20.696Z,41.00
2018-04-17T17:33:54.248Z,41.20
2018-04-17T17:36:27.931Z,42.40
2018-04-17T17:39:02.234Z,41.80
2018-04-17T17:41:35.974Z,41.80
2018-04-17T17:44:10.283Z,41.60
2018-04-17T17:46:44.596Z,40.90
2018-04-17T17:49:18.098Z,40.90
2018-04-17T17:51:51.689Z,41.50
2018-04-17T17:54:25.496Z,42.20
2018-04-17T17:56:59.048Z,43.60
2018-04-17T17:59:32.812Z,44.70
2018-04-17T18:02:06.642Z,44.90
2018-04-17T18:04:40.280Z,45.40
2018-04-17T18:07:14.015Z,45.70
2018-04-17T18:09:47.887Z,46.10
2018-04-17T18:12:21.587Z,46.40
2018-04-17T18:14:55.238Z,46.70
2018-04-17T18:17:29.035Z,46.00
2018-04-17T18:20:02.843Z,48.40
2018-04-17T18:22:36.646Z,47.60
2018-04-17T18:25:10.447Z,48.50
2018-04-17T18:27:44.146Z,47.90
2018-04-17T18:30:17.680Z,48.10
2018-04-17T18:32:51.351Z,49.20
2018-04-17T18:35:24.890Z,49.00
2018-04-17T18:37:59.174Z,49.80
2018-04-17T18:40:32.870Z,49.80
2018-04-17T18:43:06.670Z,49.40
2018-04-17T18:45:40.488Z,49.70
2018-04-17T18:48:15.106Z,49.60
2018-04-17T18:50:48.711Z,49.60
2018-04-17T18:53:23.326Z,49.50
2018-04-17T18:55:56.998Z,49.40
2018-04-17T18:58:31.446Z,50.30
2018-04-17T19:01:05.162Z,50.30
2018-04-17T19:03:38.962Z,50.60
2018-04-17T19:06:13.591Z,50.40
2018-04-17T19:08:48.094Z,51.00
2018-04-17T19:11:21.806Z,50.40
2018-04-17T19:13:55.610Z,51.30
2018-04-17T19:16:29.303Z,52.60
2018-04-17T19:19:03.027Z,52.50
2018-04-17T19:21:37.307Z,52.00
2018-04-17T19:24:11.791Z,52.30
2018-04-17T19:26:45.571Z,52.40
2018-04-17T19:29:19.154Z,52.60
2018-04-17T19:31:53.070Z,52.60
2018-04-17T19:34:26.874Z,51.80
2018-04-17T19:37:00.687Z,52.70
2018-04-17T19:39:34.490Z,53.50
2018-04-17T19:42:08.914Z,52.80
2018-04-17T19:44:42.721Z,52.70
2018-04-17T19:47:16.522Z,53.90
2018-04-17T19:49:50.038Z,54.70
2018-04-17T19:52:23.728Z,54.60
2018-04-17T19:54:57.561Z,54.40
2018-04-17T19:57:31.195Z,54.40
2018-04-17T20:00:04.960Z,54.80
2018-04-17T20:02:38.742Z,54.90
2018-04-17T20:05:13.254Z,55.70
2018-04-17T20:07:47.691Z,56.00
2018-04-17T20:10:21.485Z,55.90
2018-04-17T20:12:55.404Z,55.80
2018-04-17T20:15:29.002Z,55.50
2018-04-17T20:18:03.012Z,56.00
2018-04-17T20:20:36.722Z,56.00
2018-04-17T20:23:10.414Z,56.40
2018-04-17T20:25:44.010Z,56.70
2018-04-17T20:28:17.706Z,56.50
2018-04-17T20:30:51.406Z,57.00
2018-04-17T20:33:25.218Z,56.80
2018-04-17T20:35:59.035Z,57.10
2018-04-17T20:38:32.841Z,57.30
2018-04-17T20:41:07.264Z,57.30
2018-04-17T20:43:40.820Z,57.30
2018-04-17T20:46:14.382Z,58.00
2018-04-17T20:48:47.926Z,57.80
2018-04-17T20:51:21.724Z,58.60
2018-04-17T20:53:56.039Z,59.10
2018-04-17T20:56:29.566Z,59.10
2018-04-17T20:59:03.975Z,58.30
2018-04-17T21:01:38.018Z,58.30
2018-04-17T21:04:11.711Z,58.80
2018-04-17T21:06:46.131Z,59.30
2018-04-17T21:09:19.732Z,58.70
2018-04-17T21:11:54.246Z,59.20
2018-04-17T21:14:27.826Z,59.20
2018-04-17T21:17:01.446Z,60.90
2018-04-17T21:19:35.173Z,60.00
2018-04-17T21:22:08.739Z,59.50
2018-04-17T21:24:42.451Z,59.80
2018-04-17T21:27:16.006Z,59.80
2018-04-17T21:29:49.606Z,59.90
2018-04-17T21:32:23.886Z,61.20
2018-04-17T21:34:58.407Z,61.50
2018-04-17T21:37:32.206Z,61.30
2018-04-17T21:40:05.809Z,61.90
2018-04-17T21:42:40.332Z,61.20
2018-04-17T21:45:14.080Z,61.20
2018-04-17T21:47:47.674Z,61.40
2018-04-17T21:50:21.438Z,61.30
2018-04-17T21:52:55.242Z,61.80
2018-04-17T21:55:29.736Z,62.10
2018-04-17T21:58:03.475Z,63.00
2018-04-17T22:00:37.179Z,62.10
2018-04-17T22:03:10.774Z,62.10
2018-04-17T22:05:44.554Z,62.00
2018-04-17T22:08:18.081Z,62.90
2018-04-17T22:10:51.587Z,62.10
2018-04-17T22:13:25.162Z,62.00
2018-04-17T22:15:58.749Z,62.50
2018-04-17T22:18:32.483Z,63.10
2018-04-17T22:21:06.057Z,62.80
2018-04-17T22:23:39.702Z,63.00
2018-04-17T22:26:13.281Z,63.70
2018-04-17T22:28:46.802Z,64.40
2018-04-17T22:31:20.465Z,64.80
2018-04-17T22:33:54.910Z,65.40
2018-04-17T22:36:28.608Z,65.40
2018-04-17T22:39:02.208Z,65.60
2018-04-17T22:41:35.788Z,66.00
2018-04-17T22:44:09.398Z,66.00
2018-04-17T22:46:43.193Z,65.80
2018-04-17T22:49:16.847Z,65.90
2018-04-17T22:51:50.504Z,67.20
2018-04-17T22:54:24.119Z,66.70
2018-04-17T22:56:57.655Z,66.50
2018-04-17T22:59:31.378Z,66.40
2018-04-17T23:02:04.999Z,66.80
2018-04-17T23:04:38.731Z,66.40
2018-04-17T23:07:12.334Z,66.70
2018-04-17T23:09:45.926Z,67.40
2018-04-17T23:12:19.627Z,67.70
2018-04-17T23:14:53.193Z,67.30
2018-04-17T23:17:26.732Z,67.00
2018-04-17T23:20:00.544Z,67.40
2018-04-17T23:22:35.035Z,67.50
2018-04-17T23:25:08.767Z,67.30
2018-04-17T23:27:42.575Z,67.50
2018-04-17T23:30:16.238Z,67.50
2018-04-17T23:32:49.978Z,67.70
2018-04-17T23:35:23.745Z,67.70
2018-04-17T23:37:57.495Z,68.70
2018-04-17T23:40:31.043Z,69.00
2018-04-17T23:43:04.820Z,68.20
2018-04-17T23:45:38.797Z,69.60
2018-04-17T23:48:12.486Z,69.50
2018-04-17T23:50:46.211Z,69.00
2018-04-17T23:53:20.015Z,69.10
2018-04-17T23:55:53.768Z,69.50
2018-04-17T23:58:27.271Z,69.60
